西安 の空港の天気 - METARとTAF

西安咸陽国際空港 ( ZLXY / XIY ) - 中国 陝西省西安市
飛行場実況気象(Metar)
観測時間05/29 06:00 CST (05/28 22:00 UTC)
風向・風速不定 1m/s
視程10km以上
天気現象
なし
気温19℃
湿度78%
気圧1001hPa
METARZLXY 282200Z VRB01MPS CAVOK 19/15 Q1001 BECMG TL2350 33006MPS
過去の天気等 Google飛行場航空写真 Wunderground天気予報

過去48時間のMETAR

飛行場予報(TAF)
発表時間: 5/28 23:21 CST (5/28 15:21 UTC)
予報対象時間: 29日2時 CST ~ 30日2時 CST
風向・風速西 3m/s
視程5000m
天気現象煙霧
なし
29日7時 CST ~ 29日8時 CST に徐々に
風向・風速北北西 6m/s 瞬間風速 12m/s
29日16時 CST ~ 29日17時 CST に徐々に
風向・風速北北東 3m/s
TAF ZLXY 281521Z 2818/2918 26003MPS 5000 HZ NSC TX34/2907Z TN18/2822Z
BECMG 2823/2824 33006G12MPS
BECMG 2908/2909 03003MPS